Daily Reports
[Select Refresh to Update]


NOAA Yearly Report

                  YEARLY CLIMATOLOGICAL SUMMARY FOR 2020
                                        HEAT  COOL        
     MEAN                               DEG   DEG       WIND SPEED       DOM MEAN  MEAN
MON  TEMP  HIGH   DATE     LOW   DATE   DAYS  DAYS RAIN AVG  HI  DATE    DIR BAROM HUM
---------------------------------------------------------------------------------------
1    20.1  37.6   1/6/20 -10.1  1/16/20 1392    0  0.40   4  40   1/5/20   W1018.7   84
2    21.1  46.0  2/22/20 -12.5  2/13/20 1273    0  0.11   4  38  2/18/20   W1018.3   72
3    36.9  59.6   3/8/20  17.0  3/21/20  868    0  2.15   5  40  3/20/20   W1017.2   73
4    44.0  73.9  4/27/20  15.5  4/15/20  633    4  1.08   6  45   4/9/20   W1013.8   60
5    57.7  81.8  5/27/20  28.8  5/12/20  272   46  3.35   4  39   5/2/20  NW1017.0   62
6    73.1  92.3   6/1/20  56.6   6/4/20    3   32  0.45   1  33   6/2/20  NW1010.9   64
---------------------------------------------------------------------------------------
TOT  37.0  92.3   6/1/20 -12.5  2/13/20 4441   83  5.07   5  45   4/9/20   W1016.9   70

HEAT BASE: 65.0
COOL BASE: 65.0


NOAA Monthly Report

                  MONTHLY CLIMATOLOGICAL SUMMARY FOR 6/2020
                                        HEAT  COOL        
     MEAN                               DEG   DEG       WIND SPEED       DOM MEAN  MEAN
DAY  TEMP  HIGH   TIME     LOW   TIME   DAYS  DAYS RAIN AVG  HI  TIME    DIR BAROM HUM
---------------------------------------------------------------------------------------
1    77.0  92.3   6:21pm  65.2   7:40am    0   12  0.00   2  26   9:45am   S1012.0   60
2    74.5  88.7   1:21pm  63.0  11:59pm    0   10  0.44   2  33   4:01pm NNE1010.4   69
3    71.0  82.6   4:38pm  60.4   5:35am    1    7  0.01   1  18  10:54am  NW1011.3   64
4    68.3  82.6   2:58pm  56.6   3:50am    2    4  0.00   1  18  12:52pm  NW1009.3   62
---------------------------------------------------------------------------------------
TOT  73.1  92.3   6/1/20  56.6   6/4/20    3   32  0.45   1  33   6/2/20  NW1010.9   64

HEAT BASE: 65.0
COOL BASE: 65.0


Yearly Archive Report

Parameter                   Max   Max Time   Max Date        Min   Min Time   Min Date    Average
Total Rain                 4.88     6:29am     6/3/20      -0.19    10:42pm    1/14/20       2.03


Monthly Archive Report

Parameter                   Max   Max Time   Max Date        Min   Min Time   Min Date    Average
Total Rain                 4.88     6:29am     6/3/20       4.43    12:00am     6/1/20       4.67

 


Daily Archive Report

Parameter                   Max   Max Time        Min   Min Time    Average
Total Rain                 4.88    12:00am       4.88    12:00am       4.88


Today's  Data File

6/4/20
Time         Tot Rain WindGust H  Temp In H Temp Out H      UV Hi   Solar HiHeatIx In H   HeatIx H   Dew Pt H SL Barom H  Temp In L Temp Out L  WindCh Lo SL Barom L  DailyRain   24HrRain   Deg Heat  MonthRain DegHeat Mo DegHeat Yr
                   in        mph         F         F                 W/sqm         F         F         F         mb         F         F         F         mb         in         in         F         in         F         F
12:00am          4.88          0       75.6       62.5        0.0          0       76.2       65.2       51.8     1009.8       75.6       62.5       62.5     1009.8       0.01       0.01        1.1       0.45        1.2     4439.3
12:10am          4.88          0       75.6       62.5        0.0          0       76.2       65.3       52.2     1009.8       75.6       62.1       62.1     1009.7       0.00       0.01        0.0       0.45        1.2     4439.3
12:20am          4.88          0       75.6       62.5        0.0          0       76.2       65.3       52.4     1009.8       75.4       61.8       61.8     1009.6       0.00       0.01        0.0       0.45        1.2     4439.3
12:30am          4.88          0       75.6       62.5        0.0          0       76.2       65.3       52.4     1009.8       75.4       61.5       61.5     1009.5       0.00       0.01        0.1       0.45        1.3     4439.3
12:40am          4.88          0       75.6       62.5        0.0          0       76.2       65.3       52.5     1009.8       75.4       61.4       61.4     1009.4       0.00       0.01        0.1       0.45        1.3     4439.4
12:50am          4.88          0       75.6       62.5        0.0          0       76.2       65.3       52.5     1009.8       75.4       61.2       61.2     1009.4       0.00       0.01        0.1       0.45        1.3     4439.4
1:00am           4.88          0       75.6       62.5        0.0          0       76.2       65.3       52.5     1009.8       75.2       61.1       61.1     1009.4       0.00       0.01        0.1       0.45        1.3     4439.4
1:10am           4.88          0       75.6       62.5        0.0          0       76.2       65.3       52.5     1009.8       75.2       60.7       60.7     1009.4       0.00       0.01        0.2       0.45        1.4     4439.4
1:20am           4.88          0       75.6       62.5        0.0          0       76.2       65.3       52.5     1009.8       75.2       60.4       60.4     1009.4       0.00       0.01        0.2       0.45        1.4     4439.5
1:30am           4.88          0       75.6       62.5        0.0          0       76.2       65.3       52.5     1009.8       75.0       60.2       60.2     1009.3       0.00       0.01        0.2       0.45        1.4     4439.5
1:40am           4.88          0       75.6       62.5        0.0          0       76.2       65.3       52.5     1009.8       75.0       59.9       59.9     1009.1       0.00       0.01        0.3       0.45        1.5     4439.5
1:50am           4.88          0       75.6       62.5        0.0          0       76.2       65.3       52.5     1009.8       75.0       59.5       59.5     1009.1       0.00       0.01        0.3       0.45        1.5     4439.6
2:00am           4.88          0       75.6       62.5        0.0          0       76.2       65.3       52.5     1009.8       75.0       59.3       59.3     1009.1       0.00       0.01        0.3       0.45        1.5     4439.6
2:10am           4.88          0       75.6       62.5        0.0          0       76.2       65.3       52.6     1009.8       74.9       59.1       59.1     1008.9       0.00       0.01        0.4       0.45        1.6     4439.7
2:20am           4.88          0       75.6       62.5        0.0          0       76.2       65.3       52.6     1009.8       74.9       58.7       58.7     1008.8       0.00       0.01        0.4       0.45        1.6     4439.7
2:30am           4.88          0       75.6       62.5        0.0          0       76.2       65.3       52.6     1009.8       74.9       58.4       58.4     1008.7       0.00       0.01        0.5       0.45        1.7     4439.7
2:40am           4.88          0       75.6       62.5        0.0          0       76.2       65.3       52.6     1009.8       74.7       58.4       58.4     1008.7       0.00       0.01        0.5       0.45        1.7     4439.8
2:50am           4.88          0       75.6       62.5        0.0          0       76.2       65.3       52.6     1009.8       74.7       58.0       58.0     1008.7       0.00       0.01        0.6       0.45        1.8     4439.8
3:00am           4.88          0       75.6       62.5        0.0          0       76.2       65.3       52.6     1009.8       74.7       57.7       57.7     1008.7       0.00       0.01        0.6       0.45        1.8     4439.9
3:10am           4.88          0       75.6       62.5        0.0          0       76.2       65.3       52.6     1009.8       74.5       57.7       57.7     1008.7       0.00       0.01        0.7       0.45        1.9     4439.9
3:20am           4.88          0       75.6       62.5        0.0          0       76.2       65.3       52.6     1009.8       74.5       57.6       57.6     1008.7       0.00       0.01        0.7       0.45        1.9     4440.0
3:30am           4.88          0       75.6       62.5        0.0          0       76.2       65.3       52.6     1009.8       74.5       57.3       57.3     1008.7       0.00       0.01        0.8       0.45        2.0     4440.0
3:40am           4.88          0       75.6       62.5        0.0          0       76.2       65.3       52.6     1009.8       74.5       56.9       56.9     1008.7       0.00       0.01        0.8       0.45        2.0     4440.1
3:50am           4.88          0       75.6       62.5        0.0          0       76.2       65.3       52.6     1009.8       74.3       56.7       56.7     1008.6       0.00       0.01        0.9       0.45        2.1     4440.1
4:00am           4.88          0       75.6       62.5        0.0          0       76.2       65.3       52.6     1009.8       74.3       56.6       56.6     1008.3       0.00       0.01        0.9       0.45        2.1     4440.2
4:10am           4.88          0       75.6       62.5        0.0          0       76.2       65.3       52.6     1009.8       74.2       56.6       56.6     1008.3       0.00       0.01        1.0       0.45        2.2     4440.3
4:20am           4.88          0       75.6       62.5        0.0          0       76.2       65.3       52.6     1009.8       74.2       56.6       56.6     1008.2       0.00       0.01        1.0       0.45        2.2     4440.3
4:30am           4.88          0       75.6       62.5        0.0          0       76.2       65.3       52.6     1009.8       74.2       56.6       56.6     1008.2       0.00       0.01        1.1       0.45        2.3     4440.4
4:40am           4.88          0       75.6       62.5        0.0          0       76.2       65.3       52.6     1009.8       74.0       56.6       56.6     1008.2       0.00       0.01        1.2       0.45        2.4     4440.4
4:50am           4.88          0       75.6       62.5        0.0          0       76.2       65.3       52.6     1009.8       74.0       56.6       56.6     1008.2       0.00       0.01        1.2       0.45        2.4     4440.5
5:00am           4.88          0       75.6       62.5        0.0          0       76.2       65.3       52.6     1009.8       74.0       56.6       56.6     1008.2       0.00       0.01        1.3       0.45        2.5     4440.5
5:10am           4.88          0       75.6       62.5        0.0          0       76.2       65.3       52.6     1009.8       73.8       56.6       56.6     1008.2       0.00       0.01        1.3       0.45        2.5     4440.6
5:20am           4.88          0       75.6       62.5        0.0          0       76.2       65.3       52.6     1009.8       73.8       56.6       56.6     1008.2       0.00       0.01        1.4       0.45        2.6     4440.7
5:30am           4.88          0       75.6       62.5        0.0          7       76.2       65.3       52.6     1009.8       73.8       56.6       56.6     1008.2       0.00       0.01        1.4       0.45        2.6     4440.7
5:40am           4.88          0       75.6       62.5        0.0         14       76.2       65.3       52.6     1009.8       73.6       56.6       56.6     1008.2       0.00       0.01        1.5       0.45        2.7     4440.8
5:50am           4.88          0       75.6       62.5        0.0         25       76.2       65.3       52.6     1009.8       73.6       56.6       56.6     1008.2       0.00       0.01        1.5       0.45        2.7     4440.8
6:00am           4.88          0       75.6       62.5        0.0         37       76.2       65.3       52.6     1009.8       73.6       56.6       56.6     1008.2       0.00       0.01        1.6       0.45        2.8     4440.9
6:10am           4.88          0       75.6       62.5        0.0         46       76.2       65.3       52.6     1009.8       73.6       56.6       56.6     1008.2       0.00       0.01        1.6       0.45        2.8     4440.9
6:20am           4.88          0       75.6       62.5        0.0         70       76.2       65.3       52.6     1009.8       73.5       56.6       56.6     1008.2       0.00       0.01        1.7       0.45        2.9     4440.9
6:30am           4.88          0       75.6       62.5        0.0        100       76.2       65.3       52.6     1009.8       73.5       56.6       56.6     1008.2       0.00       0.01        1.7       0.45        2.9     4441.0
6:40am           4.88          0       75.6       62.5        0.0        132       76.2       65.3       52.6     1009.8       73.5       56.6       56.6     1008.2       0.00       0.00        1.7       0.45        2.9     4441.0
6:50am           4.88          0       75.6       63.8        0.5        174       76.2       66.3       52.6     1009.8       73.5       56.6       56.6     1008.2       0.00       0.00        1.7       0.45        2.9     4441.0
7:00am           4.88          0       75.6       65.0        0.6        269       76.2       67.1       52.6     1009.8       73.5       56.6       56.6     1008.2       0.00       0.00        1.7       0.45        2.9     4441.0
7:10am           4.88          0       75.6       66.1        0.6        274       76.2       68.1       52.9     1009.8       73.5       56.6       56.6     1008.2       0.00       0.00        1.7       0.45        2.9     4441.0
7:20am           4.88          0       75.6       67.0        0.7        306       76.2       68.7       52.9     1009.8       73.5       56.6       56.6     1008.2       0.00       0.00        1.7       0.45        2.9     4441.0
7:30am           4.88          0       75.6       67.6        0.8        432       76.2       69.4       53.2     1009.8       73.5       56.6       56.6     1008.2       0.00       0.00        1.7       0.45        2.9     4441.0
7:40am           4.88          0       75.6       68.0        0.8        441       76.2       69.9       54.1     1009.8       73.5       56.6       56.6     1008.2       0.00       0.00        1.7       0.45        2.9     4441.0
7:50am           4.88          0       75.6       68.2        0.8        441       76.2       70.0       54.2     1009.8       73.5       56.6       56.6     1008.2       0.00       0.00        1.7       0.45        2.9     4441.0
8:00am           4.88          0       75.6       68.5        1.2        462       76.2       70.3       54.2     1009.8       73.5       56.6       56.6     1008.2       0.00       0.00        1.7       0.45        2.9     4441.0
8:10am           4.88          0       75.6       69.4        1.3        650       76.2       71.0       54.7     1009.8       73.5       56.6       56.6     1008.2       0.00       0.00        1.7       0.45        2.9     4441.0
8:20am           4.88          0       75.6       70.1        1.3        650       76.2       71.6       54.9     1009.8       73.5       56.6       56.6     1008.2       0.00       0.00        1.7       0.45        2.9     4441.0
8:30am           4.88          0       75.6       70.8        1.6        650       76.2       72.1       54.9     1009.8       73.5       56.6       56.6     1008.2       0.00       0.00        1.7       0.45        2.9     4441.0
8:40am           4.88          0       75.6       71.4        1.8        733       76.2       72.4       54.9     1009.8       73.5       56.6       56.6     1008.2       0.00       0.00        1.7       0.45        2.9     4441.0
8:50am           4.88          0       75.6       71.9        1.8        793       76.2       72.9       54.9     1009.8       73.5       56.6       56.6     1008.2       0.00       0.00        1.7       0.45        2.9     4441.0
9:00am           4.88          0       75.6       72.1        2.1        793       76.2       73.3       54.9     1009.8       73.5       56.6       56.6     1008.2       0.00       0.00        1.7       0.45        2.9     4441.0
9:10am           4.88          0       75.6       73.1        2.4        830       76.2       74.2       55.4     1009.8       73.5       56.6       56.6     1008.2       0.00       0.00        1.7       0.45        2.9     4441.0
9:20am           4.88          0       75.6       73.8        2.5        830       76.2       75.1       56.6     1009.8       73.5       56.6       56.6     1008.2       0.00       0.00        1.7       0.45        2.9     4441.0
9:30am           4.88          0       75.6       74.7        2.5        830       76.2       75.9       57.0     1009.8       73.5       56.6       56.6     1008.2       0.00       0.00        1.7       0.45        2.9     4441.0
9:40am           4.88          6       75.6       75.0        2.5        830       76.2       76.2       57.7     1009.8       73.5       56.6       56.6     1008.2       0.00       0.00        1.7       0.45        2.9     4441.0
9:50am           4.88          6       75.6       75.0        2.8        830       76.2       76.2       57.7     1009.8       73.5       56.6       56.6     1008.2       0.00       0.00        1.7       0.45        2.9     4441.0
10:00am          4.88          6       75.6       75.6        3.9        830       76.2       76.7       57.7     1009.8       73.5       56.6       56.6     1008.2       0.00       0.00        1.7       0.45        2.9     4441.0
10:10am          4.88          6       75.6       75.6        3.9        830       76.2       76.8       57.8     1010.0       73.5       56.6       56.6     1008.2       0.00       0.00        1.7       0.45        2.9     4441.0
10:20am          4.88          6       75.6       75.9        3.9        830       76.2       76.9       57.8     1010.0       73.5       56.6       56.6     1008.2       0.00       0.00        1.7       0.45        2.9     4441.0
10:30am          4.88          6       75.6       76.4        3.9        830       76.2       77.6       58.5     1010.0       73.5       56.6       56.6     1008.2       0.00       0.00        1.7       0.45        2.9     4441.0
10:40am          4.88          6       75.6       76.8        3.9        830       76.2       77.9       58.8     1010.0       73.5       56.6       56.6     1008.2       0.00       0.00        1.7       0.45        2.9     4441.0
10:50am          4.88          6       75.6       77.4        5.4        940       76.2       78.5       58.9     1010.0       73.5       56.6       56.6     1008.2       0.00       0.00        1.7       0.45        2.9     4441.0
11:00am          4.88          8       75.6       78.3        5.4        979       76.2       79.3       59.3     1010.0       73.5       56.6       56.6     1008.2       0.00       0.00        1.7       0.45        2.9     4441.0
11:10am          4.88         14       75.6       79.2        5.4       1097       76.2       80.1       59.7     1010.0       73.5       56.6       56.6     1008.2       0.00       0.00        1.7       0.45        2.9     4441.0
11:20am          4.88         14       75.6       79.5        5.8       1148       76.2       80.4       59.8     1010.0       73.5       56.6       56.6     1008.2       0.00       0.00        1.7       0.45        2.9     4441.0
11:30am          4.88         14       75.6       79.7        5.8       1148       76.2       80.6       60.4     1010.0       73.5       56.6       56.6     1008.2       0.00       0.00        1.7       0.45        2.9     4441.0
11:40am          4.88         14       75.6       80.5        5.8       1148       76.3       81.4       60.7     1010.0       73.5       56.6       56.6     1008.2       0.00       0.00        1.7       0.45        2.9     4441.0
11:50am          4.88         14       75.7       80.5        5.8       1148       76.4       81.4       61.0     1010.0       73.5       56.6       56.6     1008.2       0.00       0.00        1.7       0.45        2.9     4441.0
12:00pm          4.88         16       75.9       80.5        5.9       1148       76.6       81.4       61.0     1010.0       73.5       56.6       56.6     1008.2       0.00       0.00        1.7       0.45        2.9     4441.0
12:10pm          4.88         16       76.1       80.5        6.8       1236       76.8       81.4       61.0     1010.0       73.5       56.6       56.6     1008.2       0.00       0.00        1.7       0.45        2.9     4441.0
12:20pm          4.88         16       76.3       80.5        7.4       1252       77.0       81.4       61.0     1010.0       73.5       56.6       56.6     1008.2       0.00       0.00        1.7       0.45        2.9     4441.0
12:30pm          4.88         16       76.3       80.5        7.4       1252       77.0       81.4       61.0     1010.0       73.5       56.6       56.6     1008.2       0.00       0.00        1.7       0.45        2.9     4441.0
12:40pm          4.88         16       76.4       80.5        7.4       1252       77.1       81.4       61.0     1010.0       73.5       56.6       56.6     1008.2       0.00       0.00        1.7       0.45        2.9     4441.0
12:50pm          4.88         16       76.6       80.5        7.4       1252       77.3       81.4       61.0     1010.0       73.5       56.6       56.6     1008.2       0.00       0.00        1.7       0.45        2.9     4441.0
1:00pm           4.88         18       76.8       80.7        7.4       1252       77.5       81.4       61.0     1010.0       73.5       56.6       56.6     1008.2       0.00       0.00        1.7       0.45        2.9     4441.0
1:10pm           4.88         18       76.8       81.1        7.4       1252       77.5       81.4       61.0     1010.0       73.5       56.6       56.6     1008.2       0.00       0.00        1.7       0.45        2.9     4441.0
1:20pm           4.88         18       76.8       81.1        7.4       1252       77.5       81.4       61.0     1010.0       73.5       56.6       56.6     1008.2       0.00       0.00        1.7       0.45        2.9     4441.0
1:30pm           4.88         18       77.0       81.1        7.4       1252       77.7       81.4       61.0     1010.0       73.5       56.6       56.6     1008.2       0.00       0.00        1.7       0.45        2.9     4441.0
1:40pm           4.88         18       77.0       81.7        7.6       1252       77.7       81.4       61.0     1010.0       73.5       56.6       56.6     1008.2       0.00       0.00        1.7       0.45        2.9     4441.0
1:50pm           4.88         18       77.2       81.9        7.9       1322       77.9       81.5       61.0     1010.0       73.5       56.6       56.6     1008.2       0.00       0.00        1.7       0.45        2.9     4441.0
2:00pm           4.88         18       77.2       82.5        7.9       1322       77.9       81.5       61.0     1010.0       73.5       56.6       56.6     1008.2       0.00       0.00        1.7       0.45        2.9     4441.0
2:10pm           4.88         18       77.2       82.5        7.9       1322       77.9       81.5       61.0     1010.0       73.5       56.6       56.6     1008.2       0.00       0.00        1.7       0.45        2.9     4441.0
2:20pm           4.88         18       77.2       82.5        7.9       1322       77.9       81.5       61.0     1010.0       73.5       56.6       56.6     1008.2       0.00       0.00        1.7       0.45        2.9     4441.0
2:30pm           4.88         18       77.2       82.5        7.9       1322       77.9       81.5       61.0     1010.0       73.5       56.6       56.6     1008.2       0.00       0.00        1.7       0.45        2.9     4441.0
2:40pm           4.88         18       77.3       82.5        7.9       1322       78.0       81.5       61.0     1010.0       73.5       56.6       56.6     1008.2       0.00       0.00        1.7       0.45        2.9     4441.0
2:50pm           4.88         18       77.3       82.5        7.9       1322       78.0       81.5       61.0     1010.0       73.5       56.6       56.6     1008.2       0.00       0.00        1.7       0.45        2.9     4441.0
3:00pm           4.88         18       77.3       82.6        7.9       1322       78.0       81.5       61.0     1010.0       73.5       56.6       56.6     1008.2       0.00       0.00        1.7       0.45        2.9     4441.0
3:10pm           4.88         18       77.3       83.3        7.9       1322       78.0       81.5       61.0     1010.0       73.5       56.6       56.6     1008.2       0.00       0.00        1.7       0.45        2.9     4441.0
3:20pm           4.88         18       77.3       83.3        7.9       1322       78.0       81.5       61.0     1010.0       73.5       56.6       56.6     1008.2       0.00       0.00        1.7       0.45        2.9     4441.0
3:30pm           4.88         18       77.3       83.3        7.9       1322       78.0       81.5       61.0     1010.0       73.5       56.6       56.6     1008.2       0.00       0.00        1.7       0.45        2.9     4441.0
3:40pm           4.88         18       77.3       83.3        7.9       1322       78.0       81.5       61.0     1010.0       73.5       56.6       56.6     1008.2       0.00       0.00        1.7       0.45        2.9     4441.0

 


Yesterday's Data File

6/3/20
Time         Tot Rain WindGust H  Temp In H Temp Out H      UV Hi   Solar HiHeatIx In H   HeatIx H   Dew Pt H SL Barom H  Temp In L Temp Out L  WindCh Lo SL Barom L  DailyRain   24HrRain   Deg Heat  MonthRain DegHeat Mo DegHeat Yr
                   in        mph         F         F                 W/sqm         F         F         F         mb         F         F         F         mb         in         in         F         in         F         F
12:00am          4.87          0       75.2       63.0        0.0          0       75.9       69.6       61.8     1012.2       75.2       63.0       63.0     1012.2       0.00       0.44        0.1       0.44        0.1     4438.2
12:10am          4.87          0       75.2       63.1        0.0          0       75.9       69.7       61.9     1012.3       75.2       63.0       63.0     1012.2       0.00       0.44        0.0       0.44        0.1     4438.2
12:20am          4.87          0       75.2       63.1        0.0          0       75.9       69.7       61.9     1012.4       75.2       62.8       62.8     1012.2       0.00       0.44        0.0       0.44        0.1     4438.2
12:30am          4.87          0       75.2       63.1        0.0          0       75.9       69.7       61.9     1012.4       75.0       62.6       62.6     1012.2       0.00       0.44        0.0       0.44        0.1     4438.2
12:40am          4.87          0       75.2       63.1        0.0          0       75.9       69.7       61.9     1012.5       75.0       62.5       62.5     1012.2       0.00       0.44        0.1       0.44        0.2     4438.2
12:50am          4.87          0       75.2       63.1        0.0          0       75.9       69.7       61.9     1012.6       75.0       62.3       62.3     1012.2       0.00       0.44        0.1       0.44        0.2     4438.2
1:00am           4.87          0       75.2       63.1        0.0          0       75.9       69.7       61.9     1012.7       75.0       62.2       62.2     1012.2       0.00       0.44        0.1       0.44        0.2     4438.3
1:10am           4.87          0       75.2       63.1        0.0          0       75.9       69.7       61.9     1012.7       75.0       62.0       62.0     1012.2       0.00       0.44        0.1       0.44        0.2     4438.3
1:20am           4.87          0       75.2       63.1        0.0          0       75.9       69.7       61.9     1012.8       74.9       61.9       61.9     1012.2       0.00       0.44        0.1       0.44        0.2     4438.3
1:30am           4.87          0       75.2       63.1        0.0          0       75.9       69.7       61.9     1012.8       74.9       61.6       61.6     1012.2       0.00       0.44        0.2       0.44        0.3     4438.3
1:40am           4.87          0       75.2       63.1        0.0          0       75.9       69.7       61.9     1012.8       74.9       61.5       61.5     1012.2       0.00       0.44        0.2       0.44        0.3     4438.3
1:50am           4.87          0       75.2       63.1        0.0          0       75.9       69.7       61.9     1012.8       74.9       61.2       61.2     1012.2       0.00       0.44        0.2       0.44        0.3     4438.4
2:00am           4.87          0       75.2       63.1        0.0          0       75.9       69.7       61.9     1012.8       74.7       61.2       61.2     1012.2       0.00       0.44        0.2       0.44        0.3     4438.4
2:10am           4.87          0       75.2       63.1        0.0          0       75.9       69.7       61.9     1012.8       74.7       61.1       61.1     1012.2       0.00       0.44        0.3       0.44        0.4     4438.4
2:20am           4.87          0       75.2       63.1        0.0          0       75.9       69.7       61.9     1012.8       74.7       61.1       61.1     1012.2       0.00       0.44        0.3       0.44        0.4     4438.4
2:30am           4.87          0       75.2       63.1        0.0          0       75.9       69.7       61.9     1012.8       74.7       61.1       61.1     1012.2       0.00       0.44        0.3       0.44        0.4     4438.5
2:40am           4.87          0       75.2       63.1        0.0          0       75.9       69.7       61.9     1012.8       74.5       61.1       61.1     1012.2       0.00       0.44        0.3       0.44        0.4     4438.5
2:50am           4.87          0       75.2       63.1        0.0          0       75.9       69.7       61.9     1012.8       74.5       61.1       61.1     1012.2       0.00       0.44        0.4       0.44        0.5     4438.5
3:00am           4.87          0       75.2       63.1        0.0          0       75.9       69.7       61.9     1012.8       74.5       61.1       61.1     1012.2       0.00       0.44        0.4       0.44        0.5     4438.5
3:10am           4.87          0       75.2       63.1        0.0          0       75.9       69.7       61.9     1012.8       74.5       61.1       61.1     1012.0       0.00       0.44        0.4       0.44        0.5     4438.6
3:20am           4.87          0       75.2       63.1        0.0          0       75.9       69.7       61.9     1012.8       74.3       61.1       61.1     1012.0       0.00       0.44        0.4       0.44        0.5     4438.6
3:30am           4.87          0       75.2       63.1        0.0          0       75.9       69.7       61.9     1012.8       74.3       61.1       61.1     1012.0       0.00       0.44        0.5       0.44        0.5     4438.6
3:40am           4.87          0       75.2       63.1        0.0          0       75.9       69.7       61.9     1012.8       74.3       61.1       61.1     1012.0       0.00       0.44        0.5       0.44        0.6     4438.6
3:50am           4.87          0       75.2       63.1        0.0          0       75.9       69.7       61.9     1012.8       74.3       61.1       61.1     1012.0       0.00       0.44        0.5       0.44        0.6     4438.7
4:00am           4.87          0       75.2       63.1        0.0          0       75.9       69.7       61.9     1012.8       74.2       61.1       61.1     1012.0       0.00       0.44        0.5       0.44        0.6     4438.7
4:10am           4.87          0       75.2       63.1        0.0          0       75.9       69.7       61.9     1012.8       74.2       61.1       61.1     1012.0       0.00       0.44        0.5       0.44        0.6     4438.7
4:20am           4.87          0       75.2       63.1        0.0          0       75.9       69.7       61.9     1012.8       74.2       61.1       61.1     1012.0       0.00       0.44        0.6       0.44        0.7     4438.7
4:30am           4.87          0       75.2       63.1        0.0          0       75.9       69.7       61.9     1012.8       74.2       61.1       61.1     1011.9       0.00       0.44        0.6       0.44        0.7     4438.8
4:40am           4.87          0       75.2       63.1        0.0          0       75.9       69.7       61.9     1012.8       74.0       61.1       61.1     1011.9       0.00       0.44        0.6       0.44        0.7     4438.8
4:50am           4.87          0       75.2       63.1        0.0          0       75.9       69.7       61.9     1012.8       74.0       61.0       61.0     1011.9       0.00       0.44        0.6       0.44        0.7     4438.8
5:00am           4.87          0       75.2       63.1        0.0          0       75.9       69.7       61.9     1012.8       74.0       60.9       60.9     1011.9       0.00       0.44        0.7       0.44        0.8     4438.8
5:10am           4.87          0       75.2       63.1        0.0          0       75.9       69.7       61.9     1012.8       74.0       60.8       60.8     1011.9       0.00       0.44        0.7       0.44        0.8     4438.9
5:20am           4.87          0       75.2       63.1        0.0          5       75.9       69.7       61.9     1012.8       74.0       60.7       60.7     1011.9       0.00       0.44        0.7       0.44        0.8     4438.9
5:30am           4.87          0       75.2       63.1        0.0          7       75.9       69.7       61.9     1012.8       73.8       60.6       60.6     1011.9       0.00       0.44        0.8       0.44        0.8     4438.9
5:40am           4.87          0       75.2       63.1        0.0         14       75.9       69.7       61.9     1012.8       73.8       60.4       60.4     1011.9       0.00       0.44        0.8       0.44        0.9     4438.9
5:50am           4.87          0       75.2       63.1        0.0         30       75.9       69.7       61.9     1012.8       73.8       60.4       60.4     1011.9       0.00       0.44        0.8       0.44        0.9     4439.0
6:00am           4.87          0       75.2       63.1        0.0         39       75.9       69.7       61.9     1012.8       73.8       60.4       60.4     1011.9       0.00       0.44        0.8       0.44        0.9     4439.0
6:10am           4.87          0       75.2       63.1        0.0         44       75.9       69.7       61.9     1012.8       73.8       60.4       60.4     1011.9       0.00       0.44        0.9       0.44        1.0     4439.0
6:20am           4.87          0       75.2       63.1        0.0         79       75.9       69.7       61.9     1012.8       73.6       60.4       60.4     1011.9       0.00       0.44        0.9       0.44        1.0     4439.1
6:30am           4.88          0       75.2       63.1        0.0        109       75.9       69.7       61.9     1012.8       73.6       60.4       60.4     1011.9       0.01       0.45        0.9       0.45        1.0     4439.1
6:40am           4.88          0       75.2       63.1        0.0        146       75.9       69.7       61.9     1012.8       73.6       60.4       60.4     1011.9       0.01       0.45        1.0       0.45        1.0     4439.1
6:50am           4.88          0       75.2       63.1        0.0        183       75.9       69.7       61.9     1012.8       73.6       60.4       60.4     1011.9       0.01       0.45        1.0       0.45        1.1     4439.1
7:00am           4.88          0       75.2       63.1        0.5        227       75.9       69.7       61.9     1012.8       73.6       60.4       60.4     1011.9       0.01       0.45        1.0       0.45        1.1     4439.2
7:09am           4.88          0       75.2       63.1        0.6        269       75.9       69.7       62.2     1012.8       73.6       60.4       60.4     1011.9       0.01       0.45        1.0       0.45        1.1     4439.2
7:20am           4.88          0       75.2       63.3        0.7        304       75.9       70.0       62.4     1012.8       73.6       60.4       60.4     1011.9       0.01       0.45        1.0       0.45        1.1     4439.2
7:30am           4.88          0       75.2       63.8        0.8        341       75.9       70.5       62.9     1012.8       73.6       60.4       60.4     1011.9       0.01       0.45        1.0       0.45        1.1     4439.2
7:40am           4.88          8       75.2       64.0        0.9        380       75.9       70.6       63.0     1012.8       73.6       60.4       60.4     1011.9       0.01       0.45        1.0       0.45        1.1     4439.2
7:50am           4.88          9       75.2       64.5        1.0        415       75.9       71.0       63.2     1012.8       73.6       60.4       60.4     1011.9       0.01       0.45        1.0       0.45        1.1     4439.2
8:00am           4.88          9       75.2       65.2        1.1        469       75.9       71.3       63.3     1012.8       73.6       60.4       60.4     1011.9       0.01       0.45        1.0       0.45        1.1     4439.2
8:10am           4.88         10       75.2       65.9        1.3        515       75.9       71.5       63.3     1012.8       73.6       60.4       60.4     1011.9       0.01       0.45        1.0       0.45        1.1     4439.2
8:20am           4.88         10       75.2       67.0        1.4        550       75.9       72.1       63.3     1012.8       73.6       60.4       60.4     1011.9       0.01       0.45        1.0       0.45        1.1     4439.2
8:30am           4.88         10       75.2       67.5        1.6        584       75.9       72.1       63.3     1012.8       73.6       60.4       60.4     1011.9       0.01       0.45        1.0       0.45        1.1     4439.2
8:40am           4.88         10       75.2       68.0        1.8        626       75.9       72.4       63.3     1012.8       73.6       60.4       60.4     1011.9       0.01       0.45        1.0       0.45        1.1     4439.2
8:50am           4.88         10       75.2       68.8        1.9        661       75.9       72.9       63.3     1012.8       73.6       60.4       60.4     1011.9       0.01       0.45        1.0       0.45        1.1     4439.2
9:00am           4.88         10       75.2       69.3        2.2        694       75.9       73.2       63.3     1012.8       73.6       60.4       60.4     1011.9       0.01       0.45        1.0       0.45        1.1     4439.2
9:10am           4.88         10       75.2       69.4        2.4        731       75.9       73.2       63.3     1012.8       73.6       60.4       60.4     1011.9       0.01       0.45        1.0       0.45        1.1     4439.2
9:20am           4.88         10       75.2       70.2        2.6        765       75.9       73.9       63.3     1012.9       73.6       60.4       60.4     1011.9       0.01       0.45        1.0       0.45        1.1     4439.2
9:30am           4.88         10       75.2       70.7        2.8        800       75.9       73.9       63.3     1012.9       73.6       60.4       60.4     1011.9       0.01       0.45        1.0       0.45        1.1     4439.2
9:40am           4.88         10       75.2       71.1        3.1        830       75.9       73.9       63.3     1012.9       73.6       60.4       60.4     1011.9       0.01       0.45        1.0       0.45        1.1     4439.2
9:50am           4.88         10       75.2       71.9        3.3        861       75.9       74.5       63.3     1012.9       73.6       60.4       60.4     1011.9       0.01       0.45        1.0       0.45        1.1     4439.2
10:00am          4.88         10       75.2       72.6        3.5        888       75.9       75.0       63.3     1012.9       73.6       60.4       60.4     1011.9       0.01       0.45        1.0       0.45        1.1     4439.2
10:10am          4.88         10       75.2       73.0        3.8        918       75.9       75.3       63.3     1012.9       73.6       60.4       60.4     1011.9       0.01       0.45        1.0       0.45        1.1     4439.2
10:20am          4.88         10       75.2       73.7        4.1        947       75.9       75.8       63.3     1012.9       73.6       60.4       60.4     1011.9       0.01       0.45        1.0       0.45        1.1     4439.2
10:30am          4.88         10       75.2       74.0        4.3        972       75.9       75.9       63.3     1012.9       73.6       60.4       60.4     1011.9       0.01       0.45        1.0       0.45        1.1     4439.2
10:40am          4.88         10       75.2       74.6        4.6        997       75.9       76.2       63.3     1012.9       73.6       60.4       60.4     1011.9       0.01       0.45        1.0       0.45        1.1     4439.2
10:50am          4.88         10       75.2       74.8        4.8       1014       75.9       76.3       63.3     1012.9       73.6       60.4       60.4     1011.9       0.01       0.45        1.0       0.45        1.1     4439.2
11:00am          4.88         18       75.2       75.4        5.1       1042       75.9       76.5       63.3     1012.9       73.6       60.4       60.4     1011.9       0.01       0.45        1.0       0.45        1.1     4439.2
11:10am          4.88         18       75.2       75.6        5.3       1060       75.9       76.8       63.3     1012.9       73.6       60.4       60.4     1011.9       0.01       0.45        1.0       0.45        1.1     4439.2
11:20am          4.88         18       75.2       76.1        5.5       1074       75.9       77.4       63.3     1012.9       73.6       60.4       60.4     1011.9       0.01       0.45        1.0       0.45        1.1     4439.2
11:30am          4.88         18       75.2       76.7        5.8       1097       75.9       77.9       63.3     1012.9       73.6       60.4       60.4     1011.9       0.01       0.45        1.0       0.45        1.1     4439.2
11:40am          4.88         18       75.2       76.7        6.0       1113       76.0       77.9       63.3     1012.9       73.6       60.4       60.4     1011.9       0.01       0.45        1.0       0.45        1.1     4439.2
11:50am          4.88         18       75.2       77.2        6.2       1127       76.1       77.9       63.3     1012.9       73.6       60.4       60.4     1011.9       0.01       0.45        1.0       0.45        1.1     4439.2
12:00pm          4.88         18       75.4       77.5        6.4       1141       76.3       77.9       63.3     1012.9       73.6       60.4       60.4     1011.9       0.01       0.45        1.0       0.45        1.1     4439.2
12:10pm          4.88         18       75.4       77.8        6.5       1155       76.3       78.1       63.3     1012.9       73.6       60.4       60.4     1011.9       0.01       0.45        1.0       0.45        1.1     4439.2
12:20pm          4.88         18       75.6       78.0        6.6       1160       76.5       78.5       63.3     1012.9       73.6       60.4       60.4     1011.9       0.01       0.45        1.0       0.45        1.1     4439.2
12:30pm          4.88         18       75.7       78.9        6.7       1172       76.6       79.3       63.3     1012.9       73.6       60.4       60.4     1011.9       0.01       0.45        1.0       0.45        1.1     4439.2
12:40pm          4.88         18       75.9       79.0        6.9       1183       76.8       79.3       63.3     1012.9       73.6       60.4       60.4     1011.9       0.01       0.45        1.0       0.45        1.1     4439.2
12:50pm          4.88         18       76.1       79.0        7.0       1188       77.0       79.3       63.3     1012.9       73.6       60.4       60.4     1011.7       0.01       0.45        1.0       0.45        1.1     4439.2
1:00pm           4.88         18       76.1       79.0        7.0       1192       77.0       79.3       63.3     1012.9       73.6       60.4       60.4     1011.6       0.01       0.45        1.0       0.45        1.1     4439.2
1:10pm           4.88         18       76.3       79.2        7.1       1195       77.1       79.3       63.3     1012.9       73.6       60.4       60.4     1011.5       0.01       0.45        1.0       0.45        1.1     4439.2
1:20pm           4.88         18       76.3       79.7        7.1       1197       77.1       79.4       63.3     1012.9       73.6       60.4       60.4     1011.4       0.01       0.45        1.0       0.45        1.1     4439.2
1:30pm           4.88         18       76.3       80.2        7.1       1197       77.1       80.0       63.3     1012.9       73.6       60.4       60.4     1011.3       0.01       0.45        1.0       0.45        1.1     4439.2
1:40pm           4.88         18       76.4       80.3        7.1       1197       77.2       80.0       63.3     1012.9       73.6       60.4       60.4     1011.3       0.01       0.45        1.0       0.45        1.1     4439.2
1:50pm           4.88         18       76.6       80.3        7.1       1199       77.4       80.0       63.3     1012.9       73.6       60.4       60.4     1011.2       0.01       0.45        1.0       0.45        1.1     4439.2
2:00pm           4.88         18       76.6       80.3        7.1       1199       77.4       80.0       63.3     1012.9       73.6       60.4       60.4     1011.2       0.01       0.45        1.0       0.45        1.1     4439.2
2:10pm           4.88         18       76.6       80.3        7.1       1199       77.4       80.0       63.3     1012.9       73.6       60.4       60.4     1011.1       0.01       0.45        1.0       0.45        1.1     4439.2
2:20pm           4.88         18       76.6       80.6        7.1       1199       77.4       80.0       63.3     1012.9       73.6       60.4       60.4     1011.0       0.01       0.45        1.0       0.45        1.1     4439.2
2:30pm           4.88         18       76.8       81.1        7.1       1199       77.6       80.5       63.3     1012.9       73.6       60.4       60.4     1011.0       0.01       0.45        1.0       0.45        1.1     4439.2
2:40pm           4.88         18       76.8       81.1        7.1       1199       77.6       80.5       63.3     1012.9       73.6       60.4       60.4     1011.0       0.01       0.45        1.0       0.45        1.1     4439.2
2:50pm           4.88         18       76.8       81.1        7.1       1199       77.6       80.5       63.3     1012.9       73.6       60.4       60.4     1010.9       0.01       0.45        1.0       0.45        1.1     4439.2
3:00pm           4.88         18       77.0       81.1        7.1       1199       77.8       80.5       63.3     1012.9       73.6       60.4       60.4     1010.8       0.01       0.45        1.0       0.45        1.1     4439.2
3:10pm           4.88         18       77.0       81.1        7.1       1199       77.8       80.5       63.3     1012.9       73.6       60.4       60.4     1010.8       0.01       0.45        1.0       0.45        1.1     4439.2
3:20pm           4.88         18       77.2       81.2        7.1       1199       78.0       80.5       63.3     1012.9       73.6       60.4       60.4     1010.8       0.01       0.45        1.0       0.45        1.1     4439.2
3:30pm           4.88         18       77.2       82.1        7.1       1199       78.0       81.2       63.3     1012.9       73.6       60.4       60.4     1010.8       0.01       0.45        1.0       0.45        1.1     4439.2
3:40pm           4.88         18       77.3       82.1        7.1       1199       78.1       81.2       63.3     1012.9       73.6       60.4       60.4     1010.8       0.01       0.45        1.0       0.45        1.1     4439.2
3:50pm           4.88         18       77.3       82.3        7.1       1199       78.1       81.2       63.3     1012.9       73.6       60.4       60.4     1010.8       0.01       0.45        1.0       0.45        1.1     4439.2
4:00pm           4.88         18       77.5       82.3        7.1       1199       78.3       81.2       63.3     1012.9       73.6       60.4       60.4     1010.8       0.01       0.45        1.0       0.45        1.1     4439.2
4:10pm           4.88         18       77.5       82.3        7.1       1199       78.3       81.2       63.3     1012.9       73.6       60.4       60.4     1010.7       0.01       0.45        1.0       0.45        1.1     4439.2
4:20pm           4.88         18       77.7       82.3        7.1       1199       78.5       81.2       63.3     1012.9       73.6       60.4       60.4     1010.6       0.01       0.45        1.0       0.45        1.1     4439.2
4:30pm           4.88         18       77.9       82.3        7.1       1199       78.7       81.2       63.3     1012.9       73.6       60.4       60.4     1010.6       0.01       0.45        1.0       0.45        1.1     4439.2
4:40pm           4.88         18       77.9       82.6        7.1       1199       78.7       81.3       63.3     1012.9       73.6       60.4       60.4     1010.5       0.01       0.45        1.0       0.45        1.1     4439.2
4:50pm           4.88         18       78.0       82.6        7.1       1199       78.8       81.3       63.3     1012.9       73.6       60.4       60.4     1010.2       0.01       0.45        1.0       0.45        1.1     4439.2
5:00pm           4.88         18       78.2       82.6        7.1       1199       78.9       81.3       63.3     1012.9       73.6       60.4       60.4     1010.1       0.01       0.45        1.0       0.45        1.1     4439.2
5:10pm           4.88         18       78.2       82.6        7.1       1199       78.9       81.3       63.3     1012.9       73.6       60.4       60.4     1010.1       0.01       0.27        1.0       0.45        1.1     4439.2
5:20pm           4.88         18       78.2       82.6        7.1       1199       78.9       81.3       63.3     1012.9       73.6       60.4       60.4     1010.1       0.01       0.22        1.0       0.45        1.1     4439.2
5:30pm           4.88         18       78.2       82.6        7.1       1199       78.9       81.3       63.3     1012.9       73.6       60.4       60.4     1010.1       0.01       0.11        1.0       0.45        1.1     4439.2
5:40pm           4.88         18       78.2       82.6        7.1       1199       78.9       81.3       63.3     1012.9       73.6       60.4       60.4     1010.0       0.01       0.03        1.0       0.45        1.1     4439.2
5:50pm           4.88         18       78.2       82.6        7.1       1199       78.9       81.3       63.3     1012.9       73.6       60.4       60.4     1010.0       0.01       0.02        1.0       0.45        1.1     4439.2
6:00pm           4.88         18       78.2       82.6        7.1       1199       78.9       81.3       63.3     1012.9       73.6       60.4       60.4     1010.0       0.01       0.02        1.0       0.45        1.1     4439.2
6:10pm           4.88         18       78.2       82.6        7.1       1199       78.9       81.3       63.3     1012.9       73.6       60.4       60.4     1010.0       0.01       0.01        1.0       0.45        1.1     4439.2
6:20pm           4.88         18       78.2       82.6        7.1       1199       78.9       81.3       63.3     1012.9       73.6       60.4       60.4     1010.0       0.01       0.01        1.0       0.45        1.1     4439.2
6:30pm           4.88         18       78.2       82.6        7.1       1199       78.9       81.3       63.3     1012.9       73.6       60.4       60.4     1010.0       0.01       0.01        1.0       0.45        1.1     4439.2
6:40pm           4.88         18       78.2       82.6        7.1       1199       78.9       81.3       63.3     1012.9       73.6       60.4       60.4     1010.0       0.01       0.01        1.0       0.45        1.1     4439.2
6:50pm           4.88         18       78.2       82.6        7.1       1199       78.9       81.3       63.3     1012.9       73.6       60.4       60.4     1010.0       0.01       0.01        1.0       0.45        1.1     4439.2
7:00pm           4.88         18       78.2       82.6        7.1       1199       78.9       81.3       63.3     1012.9       73.6       60.4       60.4     1009.9       0.01       0.01        1.0       0.45        1.1     4439.2
7:10pm           4.88         18       78.2       82.6        7.1       1199       78.9       81.3       63.3     1012.9       73.6       60.4       60.4     1009.8       0.01       0.01        1.0       0.45        1.1     4439.2
7:20pm           4.88         18       78.2       82.6        7.1       1199       78.9       81.3       63.3     1012.9       73.6       60.4       60.4     1009.7       0.01       0.01        1.0       0.45        1.1     4439.2
7:30pm           4.88         18       78.2       82.6        7.1       1199       78.9       81.3       63.3     1012.9       73.6       60.4       60.4     1009.7       0.01       0.01        1.0       0.45        1.1     4439.2
7:40pm           4.88         18       78.2       82.6        7.1       1199       78.9       81.3       63.3     1012.9       73.6       60.4       60.4     1009.5       0.01       0.01        1.0       0.45        1.1     4439.2
7:50pm           4.88         18       78.2       82.6        7.1       1199       78.9       81.3       63.3     1012.9       73.6       60.4       60.4     1009.4       0.01       0.01        1.0       0.45        1.1     4439.2
8:00pm           4.88         18       78.2       82.6        7.1       1199       78.9       81.3       63.3     1012.9       73.6       60.4       60.4     1009.4       0.01       0.01        1.0       0.45        1.1     4439.2
8:10pm           4.88         18       78.2       82.6        7.1       1199       78.9       81.3       63.3     1012.9       73.6       60.4       60.4     1009.3       0.01       0.01        1.0       0.45        1.1     4439.2
8:20pm           4.88         18       78.2       82.6        7.1       1199       78.9       81.3       63.3     1012.9       73.6       60.4       60.4     1009.3       0.01       0.01        1.0       0.45        1.1     4439.2
8:30pm           4.88         18       78.2       82.6        7.1       1199       78.9       81.3       63.3     1012.9       73.6       60.4       60.4     1009.3       0.01       0.01        1.0       0.45        1.1     4439.2
8:40pm           4.88         18       78.2       82.6        7.1       1199       78.9       81.3       63.3     1012.9       73.6       60.4       60.4     1009.3       0.01       0.01        1.0       0.45        1.1     4439.2
8:50pm           4.88         18       78.2       82.6        7.1       1199       78.9       81.3       63.3     1012.9       73.6       60.4       60.4     1009.3       0.01       0.01        1.0       0.45        1.1     4439.2
9:00pm           4.88         18       78.2       82.6        7.1       1199       78.9       81.3       63.3     1012.9       73.6       60.4       60.4     1009.2       0.01       0.01        1.0       0.45        1.1     4439.2
9:10pm           4.88         18       78.2       82.6        7.1       1199       78.9       81.3       63.3     1012.9       73.6       60.4       60.4     1009.2       0.01       0.01        1.0       0.45        1.1     4439.2
9:20pm           4.88         18       78.2       82.6        7.1       1199       78.9       81.3       63.3     1012.9       73.6       60.4       60.4     1009.2       0.01       0.01        1.0       0.45        1.1     4439.2
9:30pm           4.88         18       78.2       82.6        7.1       1199       78.9       81.3       63.3     1012.9       73.6       60.4       60.4     1009.2       0.01       0.01        1.0       0.45        1.1     4439.2
9:40pm           4.88         18       78.2       82.6        7.1       1199       78.9       81.3       63.3     1012.9       73.6       60.4       60.4     1009.2       0.01       0.01        1.0       0.45        1.1     4439.2
9:50pm           4.88         18       78.2       82.6        7.1       1199       78.9       81.3       63.3     1012.9       73.6       60.4       60.4     1009.2       0.01       0.01        1.0       0.45        1.1     4439.2
10:00pm          4.88         18       78.2       82.6        7.1       1199       78.9       81.3       63.3     1012.9       73.6       60.4       60.4     1009.2       0.01       0.01        1.0       0.45        1.1     4439.2
10:10pm          4.88         18       78.2       82.6        7.1       1199       78.9       81.3       63.3     1012.9       73.6       60.4       60.4     1009.2       0.01       0.01        1.0       0.45        1.1     4439.2
10:20pm          4.88         18       78.2       82.6        7.1       1199       78.9       81.3       63.3     1012.9       73.6       60.4       60.4     1009.2       0.01       0.01        1.0       0.45        1.1     4439.2
10:30pm          4.88         18       78.2       82.6        7.1       1199       78.9       81.3       63.3     1012.9       73.6       60.4       60.4     1009.2       0.01       0.01        1.0       0.45        1.1     4439.2
10:40pm          4.88         18       78.2       82.6        7.1       1199       78.9       81.3       63.3     1012.9       73.6       60.4       60.4     1009.2       0.01       0.01        1.0       0.45        1.1     4439.2
10:50pm          4.88         18       78.2       82.6        7.1       1199       78.9       81.3       63.3     1012.9       73.6       60.4       60.4     1009.2       0.01       0.01        1.0       0.45        1.1     4439.2
11:00pm          4.88         18       78.2       82.6        7.1       1199       78.9       81.3       63.3     1012.9       73.6       60.4       60.4     1009.2       0.01       0.01        1.0       0.45        1.1     4439.2
11:10pm          4.88         18       78.2       82.6        7.1       1199       78.9       81.3       63.3     1012.9       73.6       60.4       60.4     1009.2       0.01       0.01        1.1       0.45        1.1     4439.2
11:20pm          4.88         18       78.2       82.6        7.1       1199       78.9       81.3       63.3     1012.9       73.6       60.4       60.4     1009.2       0.01       0.01        1.1       0.45        1.2     4439.2
11:30pm          4.88         18       78.2       82.6        7.1       1199       78.9       81.3       63.3     1012.9       73.6       60.4       60.4     1009.2       0.01       0.01        1.1       0.45        1.2     4439.2
11:40pm          4.88         18       78.2       82.6        7.1       1199       78.9       81.3       63.3     1012.9       73.6       60.4       60.4     1009.2       0.01       0.01        1.1       0.45        1.2     4439.2
11:50pm          4.88         18       78.2       82.6        7.1       1199       78.9       81.3       63.3     1012.9       73.6       60.4       60.4     1009.2       0.01       0.01        1.1       0.45        1.2     4439.3

 

All rights reserved. Unauthorized duplication or distribution is prohibited
Never base important decisions on this or any weather information obtained from the Internet

Updated Automatically by Ambient Software's Virtual Weather Station